sensor_id;sensor_type;location;lat;lon;timestamp;temperature;humidity
65876;HTU21D;52657;51.128;5.938;2022-12-29T00:02:20;13.68;75.12
65876;HTU21D;52657;51.128;5.938;2022-12-29T00:04:46;13.70;74.99
65876;HTU21D;52657;51.128;5.938;2022-12-29T00:07:12;13.74;75.15
65876;HTU21D;52657;51.128;5.938;2022-12-29T00:09:37;13.74;75.33
65876;HTU21D;52657;51.128;5.938;2022-12-29T00:12:04;13.75;75.44
65876;HTU21D;52657;51.128;5.938;2022-12-29T00:14:30;13.70;75.86
65876;HTU21D;52657;51.128;5.938;2022-12-29T00:17:14;13.66;76.19
65876;HTU21D;52657;51.128;5.938;2022-12-29T00:19:40;13.68;76.41
65876;HTU21D;52657;51.128;5.938;2022-12-29T00:22:25;13.64;76.63
65876;HTU21D;52657;51.128;5.938;2022-12-29T00:25:11;13.63;76.81
65876;HTU21D;52657;51.128;5.938;2022-12-29T00:27:56;13.61;76.99
65876;HTU21D;52657;51.128;5.938;2022-12-29T00:30:41;13.60;76.74
65876;HTU21D;52657;51.128;5.938;2022-12-29T00:33:32;13.61;76.68
65876;HTU21D;52657;51.128;5.938;2022-12-29T00:36:32;13.63;76.34
65876;HTU21D;52657;51.128;5.938;2022-12-29T00:39:09;13.68;75.83
65876;HTU21D;52657;51.128;5.938;2022-12-29T00:41:54;13.71;75.40
65876;HTU21D;52657;51.128;5.938;2022-12-29T00:44:38;13.76;74.99
65876;HTU21D;52657;51.128;5.938;2022-12-29T00:47:04;13.77;74.61
65876;HTU21D;52657;51.128;5.938;2022-12-29T00:49:32;13.84;74.00
65876;HTU21D;52657;51.128;5.938;2022-12-29T00:52:00;13.84;73.72
65876;HTU21D;52657;51.128;5.938;2022-12-29T00:54:33;13.84;73.37
65876;HTU21D;52657;51.128;5.938;2022-12-29T00:57:00;13.91;72.99
65876;HTU21D;52657;51.128;5.938;2022-12-29T00:59:26;13.92;72.87
65876;HTU21D;52657;51.128;5.938;2022-12-29T01:01:53;13.97;72.34
65876;HTU21D;52657;51.128;5.938;2022-12-29T01:04:21;14.01;72.31
65876;HTU21D;52657;51.128;5.938;2022-12-29T01:06:48;14.01;72.25
65876;HTU21D;52657;51.128;5.938;2022-12-29T01:09:15;14.07;71.98
65876;HTU21D;52657;51.128;5.938;2022-12-29T01:12:00;14.00;72.01
65876;HTU21D;52657;51.128;5.938;2022-12-29T01:14:28;14.06;71.64
65876;HTU21D;52657;51.128;5.938;2022-12-29T01:16:55;14.03;71.22
65876;HTU21D;52657;51.128;5.938;2022-12-29T01:19:24;14.04;71.66
65876;HTU21D;52657;51.128;5.938;2022-12-29T01:21:50;14.06;71.20
65876;HTU21D;52657;51.128;5.938;2022-12-29T01:24:17;14.09;71.33
65876;HTU21D;52657;51.128;5.938;2022-12-29T01:26:46;14.09;71.17
65876;HTU21D;52657;51.128;5.938;2022-12-29T01:29:13;14.10;70.81
65876;HTU21D;52657;51.128;5.938;2022-12-29T01:31:39;14.12;70.57
65876;HTU21D;52657;51.128;5.938;2022-12-29T01:34:05;14.08;70.42
65876;HTU21D;52657;51.128;5.938;2022-12-29T01:36:32;14.05;70.24
65876;HTU21D;52657;51.128;5.938;2022-12-29T01:38:58;14.04;70.17
65876;HTU21D;52657;51.128;5.938;2022-12-29T01:41:24;14.06;70.02
65876;HTU21D;52657;51.128;5.938;2022-12-29T01:43:55;14.08;69.82
65876;HTU21D;52657;51.128;5.938;2022-12-29T01:49:21;14.10;69.54
65876;HTU21D;52657;51.128;5.938;2022-12-29T01:51:53;14.14;69.24
65876;HTU21D;52657;51.128;5.938;2022-12-29T01:54:40;14.13;68.71
65876;HTU21D;52657;51.128;5.938;2022-12-29T01:57:13;14.12;68.86
65876;HTU21D;52657;51.128;5.938;2022-12-29T01:59:55;14.13;68.81
65876;HTU21D;52657;51.128;5.938;2022-12-29T02:02:22;14.11;68.71
65876;HTU21D;52657;51.128;5.938;2022-12-29T02:04:48;14.13;68.38
65876;HTU21D;52657;51.128;5.938;2022-12-29T02:07:19;14.12;68.41
65876;HTU21D;52657;51.128;5.938;2022-12-29T02:09:51;14.11;68.20
65876;HTU21D;52657;51.128;5.938;2022-12-29T02:12:20;14.07;68.32
65876;HTU21D;52657;51.128;5.938;2022-12-29T02:14:49;14.11;68.40
65876;HTU21D;52657;51.128;5.938;2022-12-29T02:23:46;14.17;68.52
65876;HTU21D;52657;51.128;5.938;2022-12-29T02:26:29;14.11;68.55
65876;HTU21D;52657;51.128;5.938;2022-12-29T02:29:20;14.09;68.81
65876;HTU21D;52657;51.128;5.938;2022-12-29T02:32:07;13.99;69.36
65876;HTU21D;52657;51.128;5.938;2022-12-29T02:40:13;13.95;69.88
65876;HTU21D;52657;51.128;5.938;2022-12-29T02:42:50;14.01;69.86
65876;HTU21D;52657;51.128;5.938;2022-12-29T02:45:50;13.96;69.81
65876;HTU21D;52657;51.128;5.938;2022-12-29T02:48:28;13.97;69.77
65876;HTU21D;52657;51.128;5.938;2022-12-29T02:51:33;14.01;69.74
65876;HTU21D;52657;51.128;5.938;2022-12-29T02:54:00;14.04;69.55
65876;HTU21D;52657;51.128;5.938;2022-12-29T02:56:46;14.03;69.47
65876;HTU21D;52657;51.128;5.938;2022-12-29T02:59:12;14.00;69.51
65876;HTU21D;52657;51.128;5.938;2022-12-29T03:07:31;14.06;69.78
65876;HTU21D;52657;51.128;5.938;2022-12-29T03:15:50;14.08;69.86
65876;HTU21D;52657;51.128;5.938;2022-12-29T03:18:50;14.13;69.66
65876;HTU21D;52657;51.128;5.938;2022-12-29T03:21:32;14.14;69.53
65876;HTU21D;52657;51.128;5.938;2022-12-29T03:24:31;14.17;69.42
65876;HTU21D;52657;51.128;5.938;2022-12-29T03:27:01;14.14;69.23
65876;HTU21D;52657;51.128;5.938;2022-12-29T03:29:41;14.19;69.49
65876;HTU21D;52657;51.128;5.938;2022-12-29T03:32:11;14.19;69.50
65876;HTU21D;52657;51.128;5.938;2022-12-29T03:34:39;14.19;69.45
65876;HTU21D;52657;51.128;5.938;2022-12-29T03:37:12;14.12;69.14
65876;HTU21D;52657;51.128;5.938;2022-12-29T03:39:40;14.19;69.51
65876;HTU21D;52657;51.128;5.938;2022-12-29T03:42:14;14.25;69.23
65876;HTU21D;52657;51.128;5.938;2022-12-29T03:44:43;14.26;69.31
65876;HTU21D;52657;51.128;5.938;2022-12-29T03:47:14;14.22;69.55
65876;HTU21D;52657;51.128;5.938;2022-12-29T03:49:41;14.20;69.69
65876;HTU21D;52657;51.128;5.938;2022-12-29T03:52:08;14.24;69.55
65876;HTU21D;52657;51.128;5.938;2022-12-29T03:54:39;14.26;69.24
65876;HTU21D;52657;51.128;5.938;2022-12-29T03:57:05;14.27;69.11
65876;HTU21D;52657;51.128;5.938;2022-12-29T03:59:42;14.26;68.95
65876;HTU21D;52657;51.128;5.938;2022-12-29T04:02:08;14.30;68.61
65876;HTU21D;52657;51.128;5.938;2022-12-29T04:04:34;14.29;68.46
65876;HTU21D;52657;51.128;5.938;2022-12-29T04:06:59;14.26;68.00
65876;HTU21D;52657;51.128;5.938;2022-12-29T04:09:25;14.32;68.01
65876;HTU21D;52657;51.128;5.938;2022-12-29T04:11:54;14.33;68.03
65876;HTU21D;52657;51.128;5.938;2022-12-29T04:14:22;14.28;67.86
65876;HTU21D;52657;51.128;5.938;2022-12-29T04:16:48;14.26;67.97
65876;HTU21D;52657;51.128;5.938;2022-12-29T04:19:14;14.32;67.67
65876;HTU21D;52657;51.128;5.938;2022-12-29T04:21:41;14.21;68.09
65876;HTU21D;52657;51.128;5.938;2022-12-29T04:24:07;14.28;67.39
65876;HTU21D;52657;51.128;5.938;2022-12-29T04:26:36;14.23;67.70
65876;HTU21D;52657;51.128;5.938;2022-12-29T04:29:14;14.25;67.85
65876;HTU21D;52657;51.128;5.938;2022-12-29T04:31:52;14.25;67.70
65876;HTU21D;52657;51.128;5.938;2022-12-29T04:34:18;14.25;67.52
65876;HTU21D;52657;51.128;5.938;2022-12-29T04:36:45;14.25;67.27
65876;HTU21D;52657;51.128;5.938;2022-12-29T04:39:12;14.30;66.88
65876;HTU21D;52657;51.128;5.938;2022-12-29T04:41:39;14.25;67.06
65876;HTU21D;52657;51.128;5.938;2022-12-29T04:44:07;14.25;67.38
65876;HTU21D;52657;51.128;5.938;2022-12-29T04:46:51;14.19;67.76
65876;HTU21D;52657;51.128;5.938;2022-12-29T04:49:29;14.08;67.71
65876;HTU21D;52657;51.128;5.938;2022-12-29T04:52:06;14.03;68.33
65876;HTU21D;52657;51.128;5.938;2022-12-29T04:54:34;13.95;68.81
65876;HTU21D;52657;51.128;5.938;2022-12-29T04:57:07;13.91;69.20
65876;HTU21D;52657;51.128;5.938;2022-12-29T04:59:34;13.85;69.23
65876;HTU21D;52657;51.128;5.938;2022-12-29T05:01:59;13.77;69.53
65876;HTU21D;52657;51.128;5.938;2022-12-29T05:04:25;13.65;69.59
65876;HTU21D;52657;51.128;5.938;2022-12-29T05:06:52;13.60;69.81
65876;HTU21D;52657;51.128;5.938;2022-12-29T05:09:17;13.59;69.74
65876;HTU21D;52657;51.128;5.938;2022-12-29T05:11:44;13.60;69.59
65876;HTU21D;52657;51.128;5.938;2022-12-29T05:14:09;13.58;69.63
65876;HTU21D;52657;51.128;5.938;2022-12-29T05:16:36;13.53;69.78
65876;HTU21D;52657;51.128;5.938;2022-12-29T05:19:02;13.54;69.71
65876;HTU21D;52657;51.128;5.938;2022-12-29T05:21:29;13.54;69.78
65876;HTU21D;52657;51.128;5.938;2022-12-29T05:23:55;13.55;69.81
65876;HTU21D;52657;51.128;5.938;2022-12-29T05:26:21;13.56;69.79
65876;HTU21D;52657;51.128;5.938;2022-12-29T05:28:55;13.56;69.90
65876;HTU21D;52657;51.128;5.938;2022-12-29T05:31:22;13.55;69.87
65876;HTU21D;52657;51.128;5.938;2022-12-29T05:33:48;13.54;69.90
65876;HTU21D;52657;51.128;5.938;2022-12-29T05:36:14;13.54;69.89
65876;HTU21D;52657;51.128;5.938;2022-12-29T05:38:43;13.58;69.69
65876;HTU21D;52657;51.128;5.938;2022-12-29T05:41:09;13.59;69.37
65876;HTU21D;52657;51.128;5.938;2022-12-29T05:43:58;13.58;68.94
65876;HTU21D;52657;51.128;5.938;2022-12-29T05:46:39;13.60;68.75
65876;HTU21D;52657;51.128;5.938;2022-12-29T05:49:30;13.66;68.36
65876;HTU21D;52657;51.128;5.938;2022-12-29T05:52:08;13.71;67.91
65876;HTU21D;52657;51.128;5.938;2022-12-29T05:54:34;13.68;67.84
65876;HTU21D;52657;51.128;5.938;2022-12-29T05:57:01;13.70;67.59
65876;HTU21D;52657;51.128;5.938;2022-12-29T05:59:27;13.75;67.38
65876;HTU21D;52657;51.128;5.938;2022-12-29T06:01:53;13.81;67.14
65876;HTU21D;52657;51.128;5.938;2022-12-29T06:04:19;13.84;66.78
65876;HTU21D;52657;51.128;5.938;2022-12-29T06:06:46;13.85;66.78
65876;HTU21D;52657;51.128;5.938;2022-12-29T06:09:19;13.88;66.67
65876;HTU21D;52657;51.128;5.938;2022-12-29T06:11:45;13.94;66.45
65876;HTU21D;52657;51.128;5.938;2022-12-29T06:14:11;13.96;66.22
65876;HTU21D;52657;51.128;5.938;2022-12-29T06:16:36;13.98;65.98
65876;HTU21D;52657;51.128;5.938;2022-12-29T06:19:05;14.01;65.37
65876;HTU21D;52657;51.128;5.938;2022-12-29T06:21:31;13.97;65.20
65876;HTU21D;52657;51.128;5.938;2022-12-29T06:23:59;13.95;65.33
65876;HTU21D;52657;51.128;5.938;2022-12-29T06:26:25;13.94;65.31
65876;HTU21D;52657;51.128;5.938;2022-12-29T06:28:51;13.94;65.23
65876;HTU21D;52657;51.128;5.938;2022-12-29T06:31:16;13.96;65.09
65876;HTU21D;52657;51.128;5.938;2022-12-29T06:33:42;13.98;64.88
65876;HTU21D;52657;51.128;5.938;2022-12-29T06:36:09;14.00;64.62
65876;HTU21D;52657;51.128;5.938;2022-12-29T06:38:35;13.98;64.50
65876;HTU21D;52657;51.128;5.938;2022-12-29T06:41:01;13.95;64.47
65876;HTU21D;52657;51.128;5.938;2022-12-29T06:43:29;13.95;64.11
65876;HTU21D;52657;51.128;5.938;2022-12-29T06:46:14;13.93;64.01
65876;HTU21D;52657;51.128;5.938;2022-12-29T06:48:40;13.89;63.76
65876;HTU21D;52657;51.128;5.938;2022-12-29T06:51:08;13.80;63.23
65876;HTU21D;52657;51.128;5.938;2022-12-29T06:53:33;13.79;63.53
65876;HTU21D;52657;51.128;5.938;2022-12-29T06:55:59;13.79;63.47
65876;HTU21D;52657;51.128;5.938;2022-12-29T06:58:25;13.80;63.57
65876;HTU21D;52657;51.128;5.938;2022-12-29T07:00:51;13.82;63.52
65876;HTU21D;52657;51.128;5.938;2022-12-29T07:03:16;13.78;63.41
65876;HTU21D;52657;51.128;5.938;2022-12-29T07:05:42;13.74;63.56
65876;HTU21D;52657;51.128;5.938;2022-12-29T07:08:08;13.75;63.49
65876;HTU21D;52657;51.128;5.938;2022-12-29T07:10:33;13.67;63.66
65876;HTU21D;52657;51.128;5.938;2022-12-29T07:12:59;13.69;63.82
65876;HTU21D;52657;51.128;5.938;2022-12-29T07:15:25;13.70;63.73
65876;HTU21D;52657;51.128;5.938;2022-12-29T07:17:50;13.73;63.63
65876;HTU21D;52657;51.128;5.938;2022-12-29T07:20:16;13.77;63.41
65876;HTU21D;52657;51.128;5.938;2022-12-29T07:22:42;13.70;63.40
65876;HTU21D;52657;51.128;5.938;2022-12-29T07:25:08;13.70;63.39
65876;HTU21D;52657;51.128;5.938;2022-12-29T07:27:34;13.65;63.23
65876;HTU21D;52657;51.128;5.938;2022-12-29T07:29:59;13.64;63.50
65876;HTU21D;52657;51.128;5.938;2022-12-29T07:32:25;13.64;63.42
65876;HTU21D;52657;51.128;5.938;2022-12-29T07:34:51;13.67;63.32
65876;HTU21D;52657;51.128;5.938;2022-12-29T07:37:17;13.70;63.30
65876;HTU21D;52657;51.128;5.938;2022-12-29T07:39:43;13.70;63.20
65876;HTU21D;52657;51.128;5.938;2022-12-29T07:42:08;13.67;63.33
65876;HTU21D;52657;51.128;5.938;2022-12-29T07:44:41;13.64;63.32
65876;HTU21D;52657;51.128;5.938;2022-12-29T07:47:32;13.59;63.40
65876;HTU21D;52657;51.128;5.938;2022-12-29T07:49:58;13.61;63.42
65876;HTU21D;52657;51.128;5.938;2022-12-29T07:52:23;13.61;63.25
65876;HTU21D;52657;51.128;5.938;2022-12-29T07:54:49;13.64;63.15
65876;HTU21D;52657;51.128;5.938;2022-12-29T07:57:15;13.64;63.15
65876;HTU21D;52657;51.128;5.938;2022-12-29T07:59:40;13.67;62.94
65876;HTU21D;52657;51.128;5.938;2022-12-29T08:02:08;13.67;63.12
65876;HTU21D;52657;51.128;5.938;2022-12-29T08:04:34;13.67;62.83
65876;HTU21D;52657;51.128;5.938;2022-12-29T08:07:00;13.63;62.84
65876;HTU21D;52657;51.128;5.938;2022-12-29T08:09:26;13.60;62.96
65876;HTU21D;52657;51.128;5.938;2022-12-29T08:11:53;13.59;63.18
65876;HTU21D;52657;51.128;5.938;2022-12-29T08:14:18;13.47;63.42
65876;HTU21D;52657;51.128;5.938;2022-12-29T08:16:44;13.38;63.81
65876;HTU21D;52657;51.128;5.938;2022-12-29T08:19:11;13.40;64.08
65876;HTU21D;52657;51.128;5.938;2022-12-29T08:21:37;13.40;64.28
65876;HTU21D;52657;51.128;5.938;2022-12-29T08:24:02;13.38;64.51
65876;HTU21D;52657;51.128;5.938;2022-12-29T08:26:28;13.39;64.76
65876;HTU21D;52657;51.128;5.938;2022-12-29T08:28:54;13.41;64.82
65876;HTU21D;52657;51.128;5.938;2022-12-29T08:31:22;13.46;64.66
65876;HTU21D;52657;51.128;5.938;2022-12-29T08:33:48;13.47;64.51
65876;HTU21D;52657;51.128;5.938;2022-12-29T08:36:14;13.53;64.24
65876;HTU21D;52657;51.128;5.938;2022-12-29T08:38:39;13.63;64.10
65876;HTU21D;52657;51.128;5.938;2022-12-29T08:41:05;13.68;63.69
65876;HTU21D;52657;51.128;5.938;2022-12-29T08:43:31;13.74;63.72
65876;HTU21D;52657;51.128;5.938;2022-12-29T08:46:00;13.99;63.38
65876;HTU21D;52657;51.128;5.938;2022-12-29T08:48:26;14.13;62.49
65876;HTU21D;52657;51.128;5.938;2022-12-29T08:50:52;14.30;62.33
65876;HTU21D;52657;51.128;5.938;2022-12-29T08:53:18;14.60;61.89
65876;HTU21D;52657;51.128;5.938;2022-12-29T08:55:45;14.65;60.66
65876;HTU21D;52657;51.128;5.938;2022-12-29T08:58:11;14.54;60.05
65876;HTU21D;52657;51.128;5.938;2022-12-29T09:00:42;14.34;60.60
65876;HTU21D;52657;51.128;5.938;2022-12-29T09:03:08;14.24;60.78
65876;HTU21D;52657;51.128;5.938;2022-12-29T09:05:34;14.06;60.44
65876;HTU21D;52657;51.128;5.938;2022-12-29T09:08:03;13.96;60.65
65876;HTU21D;52657;51.128;5.938;2022-12-29T09:10:29;13.91;60.64
65876;HTU21D;52657;51.128;5.938;2022-12-29T09:12:55;13.75;60.44
65876;HTU21D;52657;51.128;5.938;2022-12-29T09:15:21;13.77;60.92
65876;HTU21D;52657;51.128;5.938;2022-12-29T09:17:46;13.70;60.97
65876;HTU21D;52657;51.128;5.938;2022-12-29T09:20:18;13.71;60.89
65876;HTU21D;52657;51.128;5.938;2022-12-29T09:22:45;13.66;61.02
65876;HTU21D;52657;51.128;5.938;2022-12-29T09:25:12;13.67;60.79
65876;HTU21D;52657;51.128;5.938;2022-12-29T09:27:38;13.55;60.41
65876;HTU21D;52657;51.128;5.938;2022-12-29T09:30:07;13.63;60.70
65876;HTU21D;52657;51.128;5.938;2022-12-29T09:32:33;13.70;60.57
65876;HTU21D;52657;51.128;5.938;2022-12-29T09:34:59;13.75;60.44
65876;HTU21D;52657;51.128;5.938;2022-12-29T09:37:25;13.81;60.28
65876;HTU21D;52657;51.128;5.938;2022-12-29T09:39:51;13.79;60.26
65876;HTU21D;52657;51.128;5.938;2022-12-29T09:42:24;13.85;59.90
65876;HTU21D;52657;51.128;5.938;2022-12-29T09:45:05;13.86;59.66
65876;HTU21D;52657;51.128;5.938;2022-12-29T09:47:34;13.83;59.34
65876;HTU21D;52657;51.128;5.938;2022-12-29T09:52:43;13.81;59.24
65876;HTU21D;52657;51.128;5.938;2022-12-29T09:55:26;13.80;59.10
65876;HTU21D;52657;51.128;5.938;2022-12-29T09:58:02;13.78;58.80
65876;HTU21D;52657;51.128;5.938;2022-12-29T10:00:58;13.84;59.01
65876;HTU21D;52657;51.128;5.938;2022-12-29T10:03:44;13.85;58.77
65876;HTU21D;52657;51.128;5.938;2022-12-29T10:06:19;13.91;58.74
65876;HTU21D;52657;51.128;5.938;2022-12-29T10:24:56;13.81;58.16
65876;HTU21D;52657;51.128;5.938;2022-12-29T10:27:23;13.75;58.39
65876;HTU21D;52657;51.128;5.938;2022-12-29T10:29:55;13.79;58.29
65876;HTU21D;52657;51.128;5.938;2022-12-29T10:32:39;13.67;57.90
65876;HTU21D;52657;51.128;5.938;2022-12-29T10:35:35;13.67;58.22
65876;HTU21D;52657;51.128;5.938;2022-12-29T10:38:26;13.67;58.34
65876;HTU21D;52657;51.128;5.938;2022-12-29T10:41:17;13.76;57.90
65876;HTU21D;52657;51.128;5.938;2022-12-29T10:43:49;13.79;57.93
65876;HTU21D;52657;51.128;5.938;2022-12-29T10:46:25;13.76;57.82
65876;HTU21D;52657;51.128;5.938;2022-12-29T10:48:52;13.79;57.47
65876;HTU21D;52657;51.128;5.938;2022-12-29T10:51:28;13.81;57.48
65876;HTU21D;52657;51.128;5.938;2022-12-29T10:54:04;13.86;57.37
65876;HTU21D;52657;51.128;5.938;2022-12-29T10:56:39;13.77;56.81
65876;HTU21D;52657;51.128;5.938;2022-12-29T10:59:20;13.78;57.26
65876;HTU21D;52657;51.128;5.938;2022-12-29T11:07:16;13.95;57.17
65876;HTU21D;52657;51.128;5.938;2022-12-29T11:09:45;13.95;57.23
65876;HTU21D;52657;51.128;5.938;2022-12-29T11:12:25;13.93;57.02
65876;HTU21D;52657;51.128;5.938;2022-12-29T11:17:54;13.97;57.10
65876;HTU21D;52657;51.128;5.938;2022-12-29T11:20:34;13.96;57.00
65876;HTU21D;52657;51.128;5.938;2022-12-29T11:23:06;14.00;56.48
65876;HTU21D;52657;51.128;5.938;2022-12-29T11:28:37;13.99;56.83
65876;HTU21D;52657;51.128;5.938;2022-12-29T11:31:05;14.09;56.59
65876;HTU21D;52657;51.128;5.938;2022-12-29T11:33:34;14.05;56.85
65876;HTU21D;52657;51.128;5.938;2022-12-29T11:36:11;13.99;56.93
65876;HTU21D;52657;51.128;5.938;2022-12-29T11:38:41;13.99;57.00
65876;HTU21D;52657;51.128;5.938;2022-12-29T11:41:12;13.89;57.14
65876;HTU21D;52657;51.128;5.938;2022-12-29T11:43:43;13.79;57.15
65876;HTU21D;52657;51.128;5.938;2022-12-29T11:46:23;13.80;57.35
65876;HTU21D;52657;51.128;5.938;2022-12-29T11:48:50;13.84;57.02
65876;HTU21D;52657;51.128;5.938;2022-12-29T11:51:35;13.81;57.54
65876;HTU21D;52657;51.128;5.938;2022-12-29T11:54:05;13.89;57.42
65876;HTU21D;52657;51.128;5.938;2022-12-29T11:56:40;13.85;57.48
65876;HTU21D;52657;51.128;5.938;2022-12-29T11:59:49;13.90;57.51
65876;HTU21D;52657;51.128;5.938;2022-12-29T12:07:52;13.82;57.32
65876;HTU21D;52657;51.128;5.938;2022-12-29T12:10:45;13.81;57.47
65876;HTU21D;52657;51.128;5.938;2022-12-29T12:13:20;13.84;57.59
65876;HTU21D;52657;51.128;5.938;2022-12-29T12:16:04;13.85;57.55
65876;HTU21D;52657;51.128;5.938;2022-12-29T12:18:57;13.92;57.33
65876;HTU21D;52657;51.128;5.938;2022-12-29T12:21:38;13.89;57.59
65876;HTU21D;52657;51.128;5.938;2022-12-29T12:24:31;13.90;57.54
65876;HTU21D;52657;51.128;5.938;2022-12-29T12:27:18;13.92;57.41
65876;HTU21D;52657;51.128;5.938;2022-12-29T12:29:47;13.89;57.43
65876;HTU21D;52657;51.128;5.938;2022-12-29T12:34:48;13.88;57.49
65876;HTU21D;52657;51.128;5.938;2022-12-29T12:40:40;13.97;57.23
65876;HTU21D;52657;51.128;5.938;2022-12-29T12:43:23;13.95;57.06
65876;HTU21D;52657;51.128;5.938;2022-12-29T12:46:25;14.01;57.31
65876;HTU21D;52657;51.128;5.938;2022-12-29T12:51:51;14.10;56.89
65876;HTU21D;52657;51.128;5.938;2022-12-29T13:00:55;14.19;56.84
65876;HTU21D;52657;51.128;5.938;2022-12-29T13:09:02;14.15;56.56
65876;HTU21D;52657;51.128;5.938;2022-12-29T13:22:46;14.09;56.42
65876;HTU21D;52657;51.128;5.938;2022-12-29T13:25:25;14.11;56.29
65876;HTU21D;52657;51.128;5.938;2022-12-29T13:36:39;14.01;56.55
65876;HTU21D;52657;51.128;5.938;2022-12-29T13:41:46;14.00;56.60
65876;HTU21D;52657;51.128;5.938;2022-12-29T13:44:23;14.00;56.88
65876;HTU21D;52657;51.128;5.938;2022-12-29T13:46:53;13.94;56.85
65876;HTU21D;52657;51.128;5.938;2022-12-29T13:49:21;13.95;56.74
65876;HTU21D;52657;51.128;5.938;2022-12-29T13:52:28;13.90;56.64
65876;HTU21D;52657;51.128;5.938;2022-12-29T13:55:30;13.83;56.75
65876;HTU21D;52657;51.128;5.938;2022-12-29T13:58:12;13.84;56.91
65876;HTU21D;52657;51.128;5.938;2022-12-29T14:03:49;13.93;56.84
65876;HTU21D;52657;51.128;5.938;2022-12-29T14:06:28;13.96;56.91
65876;HTU21D;52657;51.128;5.938;2022-12-29T14:08:58;13.93;56.48
65876;HTU21D;52657;51.128;5.938;2022-12-29T14:11:32;13.92;56.74
65876;HTU21D;52657;51.128;5.938;2022-12-29T14:14:31;13.86;56.83
65876;HTU21D;52657;51.128;5.938;2022-12-29T14:17:10;13.93;56.90
65876;HTU21D;52657;51.128;5.938;2022-12-29T14:19:41;13.96;56.64
65876;HTU21D;52657;51.128;5.938;2022-12-29T14:22:09;13.95;56.61
65876;HTU21D;52657;51.128;5.938;2022-12-29T14:24:43;13.88;56.76
65876;HTU21D;52657;51.128;5.938;2022-12-29T14:35:39;13.75;57.49
65876;HTU21D;52657;51.128;5.938;2022-12-29T14:38:26;13.80;57.27
65876;HTU21D;52657;51.128;5.938;2022-12-29T14:41:16;13.81;57.21
65876;HTU21D;52657;51.128;5.938;2022-12-29T14:43:53;13.74;57.11
65876;HTU21D;52657;51.128;5.938;2022-12-29T14:46:19;13.75;57.27
65876;HTU21D;52657;51.128;5.938;2022-12-29T14:48:45;13.75;57.10
65876;HTU21D;52657;51.128;5.938;2022-12-29T14:51:27;13.62;57.20
65876;HTU21D;52657;51.128;5.938;2022-12-29T14:53:54;13.53;57.32
65876;HTU21D;52657;51.128;5.938;2022-12-29T14:56:26;13.50;57.64
65876;HTU21D;52657;51.128;5.938;2022-12-29T14:59:02;13.49;58.17
65876;HTU21D;52657;51.128;5.938;2022-12-29T15:04:13;13.34;59.28
65876;HTU21D;52657;51.128;5.938;2022-12-29T15:06:40;13.22;59.85
65876;HTU21D;52657;51.128;5.938;2022-12-29T15:09:29;13.15;60.22
65876;HTU21D;52657;51.128;5.938;2022-12-29T15:12:05;13.10;60.25
65876;HTU21D;52657;51.128;5.938;2022-12-29T15:14:53;13.07;60.38
65876;HTU21D;52657;51.128;5.938;2022-12-29T15:17:31;13.04;60.41
65876;HTU21D;52657;51.128;5.938;2022-12-29T15:20:00;13.00;60.63
65876;HTU21D;52657;51.128;5.938;2022-12-29T15:22:27;12.96;60.81
65876;HTU21D;52657;51.128;5.938;2022-12-29T15:24:55;12.95;61.02
65876;HTU21D;52657;51.128;5.938;2022-12-29T15:27:25;12.90;61.32
65876;HTU21D;52657;51.128;5.938;2022-12-29T15:29:58;12.87;61.70
65876;HTU21D;52657;51.128;5.938;2022-12-29T15:32:25;12.87;61.57
65876;HTU21D;52657;51.128;5.938;2022-12-29T15:34:54;12.84;61.81
65876;HTU21D;52657;51.128;5.938;2022-12-29T15:37:34;12.77;62.06
65876;HTU21D;52657;51.128;5.938;2022-12-29T15:40:04;12.77;62.21
65876;HTU21D;52657;51.128;5.938;2022-12-29T15:45:18;12.73;62.56
65876;HTU21D;52657;51.128;5.938;2022-12-29T15:47:46;12.73;62.54
65876;HTU21D;52657;51.128;5.938;2022-12-29T15:50:30;12.71;62.53
65876;HTU21D;52657;51.128;5.938;2022-12-29T15:52:57;12.69;62.41
65876;HTU21D;52657;51.128;5.938;2022-12-29T15:55:44;12.66;62.30
65876;HTU21D;52657;51.128;5.938;2022-12-29T15:58:23;12.70;62.09
65876;HTU21D;52657;51.128;5.938;2022-12-29T16:00:56;12.71;61.65
65876;HTU21D;52657;51.128;5.938;2022-12-29T16:03:26;12.77;61.46
65876;HTU21D;52657;51.128;5.938;2022-12-29T16:06:07;12.81;61.18
65876;HTU21D;52657;51.128;5.938;2022-12-29T16:08:38;12.82;60.80
65876;HTU21D;52657;51.128;5.938;2022-12-29T16:11:32;12.73;60.07
65876;HTU21D;52657;51.128;5.938;2022-12-29T16:14:00;12.73;60.35
65876;HTU21D;52657;51.128;5.938;2022-12-29T16:16:39;12.75;60.18
65876;HTU21D;52657;51.128;5.938;2022-12-29T16:19:13;12.77;59.82
65876;HTU21D;52657;51.128;5.938;2022-12-29T16:21:41;12.67;60.10
65876;HTU21D;52657;51.128;5.938;2022-12-29T16:24:17;12.59;60.29
65876;HTU21D;52657;51.128;5.938;2022-12-29T16:27:36;12.53;60.30
65876;HTU21D;52657;51.128;5.938;2022-12-29T16:29:36;12.55;60.76
65876;HTU21D;52657;51.128;5.938;2022-12-29T16:32:25;12.57;60.99
65876;HTU21D;52657;51.128;5.938;2022-12-29T16:37:31;12.62;61.24
65876;HTU21D;52657;51.128;5.938;2022-12-29T16:42:46;12.65;61.94
65876;HTU21D;52657;51.128;5.938;2022-12-29T16:50:35;12.43;63.34
65876;HTU21D;52657;51.128;5.938;2022-12-29T16:53:03;12.32;64.31
65876;HTU21D;52657;51.128;5.938;2022-12-29T16:55:30;12.20;65.03
65876;HTU21D;52657;51.128;5.938;2022-12-29T16:58:00;12.11;65.93
65876;HTU21D;52657;51.128;5.938;2022-12-29T17:00:28;12.01;66.50
65876;HTU21D;52657;51.128;5.938;2022-12-29T17:02:58;11.99;66.89
65876;HTU21D;52657;51.128;5.938;2022-12-29T17:05:25;11.92;66.94
65876;HTU21D;52657;51.128;5.938;2022-12-29T17:07:51;11.86;67.10
65876;HTU21D;52657;51.128;5.938;2022-12-29T17:10:18;11.84;67.07
65876;HTU21D;52657;51.128;5.938;2022-12-29T17:12:47;11.73;67.20
65876;HTU21D;52657;51.128;5.938;2022-12-29T17:15:24;11.69;67.59
65876;HTU21D;52657;51.128;5.938;2022-12-29T17:17:55;11.62;67.84
65876;HTU21D;52657;51.128;5.938;2022-12-29T17:20:29;11.59;67.84
65876;HTU21D;52657;51.128;5.938;2022-12-29T17:22:56;11.52;68.01
65876;HTU21D;52657;51.128;5.938;2022-12-29T17:25:30;11.44;68.36
65876;HTU21D;52657;51.128;5.938;2022-12-29T17:28:41;11.41;68.52
65876;HTU21D;52657;51.128;5.938;2022-12-29T17:30:48;11.33;69.07
65876;HTU21D;52657;51.128;5.938;2022-12-29T17:33:19;11.32;69.20
65876;HTU21D;52657;51.128;5.938;2022-12-29T17:35:46;11.27;69.21
65876;HTU21D;52657;51.128;5.938;2022-12-29T17:38:21;11.24;69.20
65876;HTU21D;52657;51.128;5.938;2022-12-29T17:40:49;11.23;69.21
65876;HTU21D;52657;51.128;5.938;2022-12-29T17:43:16;11.23;68.94
65876;HTU21D;52657;51.128;5.938;2022-12-29T17:45:43;11.17;68.94
65876;HTU21D;52657;51.128;5.938;2022-12-29T17:48:16;11.17;68.65
65876;HTU21D;52657;51.128;5.938;2022-12-29T17:50:45;11.18;68.55
65876;HTU21D;52657;51.128;5.938;2022-12-29T17:53:14;11.13;68.51
65876;HTU21D;52657;51.128;5.938;2022-12-29T17:55:41;11.16;68.38
65876;HTU21D;52657;51.128;5.938;2022-12-29T17:58:27;11.14;68.15
65876;HTU21D;52657;51.128;5.938;2022-12-29T18:00:56;11.15;67.87